createdAt,value
2023-02-23T00:00:31.612Z,22.27
2023-02-23T00:03:03.263Z,19.88
2023-02-23T00:05:35.897Z,15.88
2023-02-23T00:08:02.950Z,16.25
2023-02-23T00:10:33.491Z,18.98
2023-02-23T00:13:01.256Z,18.52
2023-02-23T00:15:29.839Z,15.43
2023-02-23T00:17:59.774Z,14.73
2023-02-23T00:20:29.227Z,14.68
2023-02-23T00:22:57.477Z,14.95
2023-02-23T00:25:25.811Z,15.93
2023-02-23T00:27:53.107Z,16.38
2023-02-23T00:30:20.536Z,17.92
2023-02-23T00:32:52.483Z,19.70
2023-02-23T00:35:19.797Z,17.83
2023-02-23T00:37:49.735Z,20.27
2023-02-23T00:40:21.345Z,18.50
2023-02-23T00:42:50.117Z,16.70
2023-02-23T00:45:17.205Z,19.17
2023-02-23T00:47:45.176Z,20.35
2023-02-23T00:50:17.266Z,17.25
2023-02-23T00:52:44.775Z,19.83
2023-02-23T00:55:15.188Z,17.33
2023-02-23T00:57:42.151Z,14.77
2023-02-23T01:00:20.075Z,19.63
2023-02-23T01:02:48.550Z,17.63
2023-02-23T01:05:16.868Z,20.02
2023-02-23T01:07:57.706Z,22.35
2023-02-23T01:10:28.361Z,20.38
2023-02-23T01:12:55.595Z,14.48
2023-02-23T01:15:23.578Z,15.18
2023-02-23T01:17:50.696Z,15.52
2023-02-23T01:20:19.066Z,17.27
2023-02-23T01:22:49.794Z,15.55
2023-02-23T01:25:18.680Z,17.10
2023-02-23T01:27:46.137Z,17.02
2023-02-23T01:30:15.220Z,19.48
2023-02-23T01:32:44.033Z,18.30
2023-02-23T01:35:12.664Z,18.17
2023-02-23T01:37:43.525Z,15.93
2023-02-23T01:40:15.315Z,14.95
2023-02-23T01:42:46.975Z,17.50
2023-02-23T01:45:27.733Z,15.02
2023-02-23T01:48:03.037Z,15.68
2023-02-23T01:50:39.162Z,16.65
2023-02-23T01:53:06.619Z,14.55
2023-02-23T01:55:34.799Z,17.60
2023-02-23T01:58:15.676Z,15.38
2023-02-23T02:00:48.802Z,17.30
2023-02-23T02:03:33.324Z,17.95
2023-02-23T02:06:03.895Z,16.42
2023-02-23T02:08:33.843Z,18.27
2023-02-23T02:11:08.405Z,15.93
2023-02-23T02:13:37.402Z,16.63
2023-02-23T02:16:29.349Z,18.38
2023-02-23T02:19:18.807Z,16.58
2023-02-23T02:22:16.503Z,16.75
2023-02-23T02:25:11.759Z,19.60
2023-02-23T02:28:04.256Z,17.15
2023-02-23T02:31:11.664Z,18.75
2023-02-23T02:34:00.214Z,18.02
2023-02-23T02:36:58.096Z,15.63
2023-02-23T02:39:44.843Z,18.92
2023-02-23T02:42:36.560Z,13.23
2023-02-23T02:45:19.348Z,14.85
2023-02-23T02:48:42.306Z,14.40
2023-02-23T02:51:35.498Z,18.90
2023-02-23T02:54:21.099Z,18.42
2023-02-23T02:56:57.826Z,19.33
2023-02-23T02:59:45.319Z,16.98
2023-02-23T03:02:39.500Z,24.25
2023-02-23T03:05:43.602Z,19.00
2023-02-23T03:08:36.115Z,18.80
2023-02-23T03:11:27.491Z,18.60
2023-02-23T03:14:45.523Z,18.10
2023-02-23T03:17:44.642Z,17.00
2023-02-23T03:20:54.638Z,13.63
2023-02-23T03:24:20.200Z,17.08
2023-02-23T03:27:23.600Z,17.20
2023-02-23T03:30:24.087Z,13.75
2023-02-23T03:33:21.412Z,16.70
2023-02-23T03:36:17.801Z,16.88
2023-02-23T03:39:21.878Z,15.35
2023-02-23T03:42:12.999Z,17.73
2023-02-23T03:45:04.865Z,16.08
2023-02-23T03:47:57.663Z,15.65
2023-02-23T03:50:56.587Z,18.10
2023-02-23T03:53:55.480Z,19.02
2023-02-23T03:56:46.272Z,17.65
2023-02-23T03:59:40.778Z,19.83
2023-02-23T04:02:29.266Z,24.25
2023-02-23T04:05:18.912Z,21.77
2023-02-23T04:08:09.945Z,18.42
2023-02-23T04:11:08.462Z,18.33
2023-02-23T04:13:40.371Z,18.70
2023-02-23T04:16:09.536Z,21.00
2023-02-23T04:18:39.631Z,21.38
2023-02-23T04:21:07.456Z,18.98
2023-02-23T04:23:37.029Z,18.90
2023-02-23T04:26:05.114Z,19.48
2023-02-23T04:28:32.176Z,21.42
2023-02-23T04:30:59.172Z,17.88
2023-02-23T04:33:27.164Z,17.95
2023-02-23T04:35:55.094Z,17.15
2023-02-23T04:38:23.304Z,18.77
2023-02-23T04:40:51.245Z,19.55
2023-02-23T04:43:18.373Z,16.73
2023-02-23T04:45:45.826Z,22.30
2023-02-23T04:48:12.968Z,22.00
2023-02-23T04:50:40.328Z,23.63
2023-02-23T04:53:07.415Z,20.30
2023-02-23T04:55:34.640Z,22.45
2023-02-23T04:58:02.875Z,23.60
2023-02-23T05:00:31.560Z,17.48
2023-02-23T05:02:58.688Z,20.98
2023-02-23T05:05:26.077Z,19.83
2023-02-23T05:07:54.621Z,18.98
2023-02-23T05:10:21.799Z,18.90
2023-02-23T05:12:48.846Z,15.15
2023-02-23T05:15:16.296Z,15.88
2023-02-23T05:17:43.506Z,18.20
2023-02-23T05:20:12.385Z,22.80
2023-02-23T05:22:39.953Z,23.30
2023-02-23T05:25:10.268Z,19.48
2023-02-23T05:27:37.917Z,16.80
2023-02-23T05:30:07.927Z,19.13
2023-02-23T05:32:35.454Z,20.13
2023-02-23T05:35:02.746Z,20.48
2023-02-23T05:37:29.651Z,19.95
2023-02-23T05:39:56.523Z,21.67
2023-02-23T05:42:23.438Z,18.35
2023-02-23T05:44:50.363Z,23.55
2023-02-23T05:47:17.232Z,18.88
2023-02-23T05:49:46.096Z,22.70
2023-02-23T05:52:13.032Z,21.40
2023-02-23T05:54:40.153Z,18.30
2023-02-23T05:57:08.282Z,22.27
2023-02-23T05:59:35.358Z,28.80
2023-02-23T06:02:06.014Z,21.08
2023-02-23T06:04:33.978Z,21.55
2023-02-23T06:07:00.861Z,21.00
2023-02-23T06:09:27.869Z,16.40
2023-02-23T06:11:55.154Z,21.48
2023-02-23T06:14:22.047Z,21.75
2023-02-23T06:16:49.018Z,20.52
2023-02-23T06:19:16.154Z,19.05
2023-02-23T06:21:43.103Z,23.63
2023-02-23T06:24:10.368Z,35.55
2023-02-23T06:26:37.291Z,22.90
2023-02-23T06:29:04.366Z,25.63
2023-02-23T06:31:31.274Z,24.17
2023-02-23T06:33:58.396Z,34.25
2023-02-23T06:36:25.523Z,29.83
2023-02-23T06:38:58.015Z,22.55
2023-02-23T06:41:25.997Z,28.08
2023-02-23T06:43:53.268Z,20.48
2023-02-23T06:46:20.711Z,25.80
2023-02-23T06:48:47.912Z,32.10
2023-02-23T06:51:14.872Z,29.85
2023-02-23T06:53:42.267Z,23.67
2023-02-23T06:56:10.596Z,22.67
2023-02-23T06:58:39.280Z,22.05
2023-02-23T07:01:06.853Z,23.20
2023-02-23T07:03:33.954Z,24.15
2023-02-23T07:06:01.054Z,25.15
2023-02-23T07:08:28.105Z,28.95
2023-02-23T07:10:56.740Z,23.58
2023-02-23T07:13:24.476Z,28.50
2023-02-23T07:15:57.225Z,27.73
2023-02-23T07:18:24.341Z,23.75
2023-02-23T07:20:54.511Z,28.48
2023-02-23T07:23:22.431Z,29.23
2023-02-23T07:25:56.577Z,27.58
2023-02-23T07:28:24.280Z,30.23
2023-02-23T07:30:51.484Z,29.58
2023-02-23T07:33:18.507Z,25.02
2023-02-23T07:35:45.621Z,27.15
2023-02-23T07:38:13.508Z,26.50
2023-02-23T07:40:40.736Z,24.98
2023-02-23T07:43:08.345Z,25.05
2023-02-23T07:45:36.262Z,27.58
2023-02-23T07:48:03.822Z,31.42
2023-02-23T07:50:31.173Z,23.20
2023-02-23T07:52:58.650Z,26.90
2023-02-23T07:55:25.734Z,27.42
2023-02-23T07:57:53.576Z,24.63
2023-02-23T08:00:21.221Z,27.70
2023-02-23T08:02:48.244Z,27.48
2023-02-23T08:05:17.577Z,25.85
2023-02-23T08:07:44.691Z,26.13
2023-02-23T08:10:12.923Z,27.42
2023-02-23T08:12:40.961Z,27.98
2023-02-23T08:15:09.824Z,22.77
2023-02-23T08:17:38.520Z,26.00
2023-02-23T08:20:09.699Z,26.75
2023-02-23T08:22:48.364Z,26.83
2023-02-23T08:25:16.628Z,28.13
2023-02-23T08:27:43.932Z,23.48
2023-02-23T08:30:14.124Z,26.10
2023-02-23T08:32:41.770Z,25.00
2023-02-23T08:35:11.130Z,22.52
2023-02-23T08:37:38.172Z,26.00
2023-02-23T08:40:06.354Z,26.08
2023-02-23T08:42:33.300Z,23.08
2023-02-23T08:45:01.455Z,23.30
2023-02-23T08:47:28.629Z,24.77
2023-02-23T08:49:55.707Z,21.05
2023-02-23T08:52:23.499Z,22.27
2023-02-23T08:54:50.539Z,21.02
2023-02-23T08:57:18.298Z,23.38
2023-02-23T08:59:45.302Z,22.63
2023-02-23T09:02:14.346Z,23.10
2023-02-23T09:04:42.070Z,21.73
2023-02-23T09:07:15.306Z,21.83
2023-02-23T09:09:42.423Z,21.70
2023-02-23T09:12:09.490Z,23.38
2023-02-23T09:14:37.152Z,21.77
2023-02-23T09:17:04.447Z,21.48
2023-02-23T09:19:32.171Z,20.58
2023-02-23T09:21:59.405Z,20.38
2023-02-23T09:24:26.409Z,22.33
2023-02-23T09:26:53.855Z,19.70
2023-02-23T09:29:21.405Z,18.73
2023-02-23T09:31:51.263Z,19.27
2023-02-23T09:34:19.514Z,19.08
2023-02-23T09:36:46.587Z,20.85
2023-02-23T09:39:13.858Z,18.88
2023-02-23T09:41:46.502Z,18.40
2023-02-23T09:44:19.697Z,20.55
2023-02-23T09:47:20.223Z,18.73
2023-02-23T09:49:49.867Z,18.88
2023-02-23T09:52:40.450Z,19.77
2023-02-23T09:55:14.615Z,18.27
2023-02-23T09:57:49.074Z,19.88
2023-02-23T10:00:27.939Z,20.95
2023-02-23T10:03:52.247Z,19.20
2023-02-23T10:06:21.135Z,18.02
2023-02-23T10:09:15.490Z,17.08
2023-02-23T10:11:57.257Z,18.52
2023-02-23T10:14:45.893Z,15.88
2023-02-23T10:17:53.926Z,15.80
2023-02-23T10:20:39.000Z,19.20
2023-02-23T10:23:26.697Z,16.85
2023-02-23T10:26:00.006Z,17.73
2023-02-23T10:28:35.771Z,16.17
2023-02-23T10:31:26.295Z,18.15
2023-02-23T10:34:00.051Z,17.13
2023-02-23T10:36:41.325Z,19.10
2023-02-23T10:39:12.408Z,19.65
2023-02-23T10:41:41.931Z,16.95
2023-02-23T10:44:22.839Z,21.60
2023-02-23T10:47:02.902Z,15.77
2023-02-23T10:49:43.679Z,14.95
2023-02-23T10:52:21.585Z,14.45
2023-02-23T10:54:51.963Z,16.38
2023-02-23T10:57:33.995Z,16.08
2023-02-23T11:00:30.605Z,17.35
2023-02-23T11:03:00.331Z,20.17
2023-02-23T11:05:36.992Z,15.98
2023-02-23T11:08:30.466Z,14.13
2023-02-23T11:11:05.409Z,15.52
2023-02-23T11:13:44.264Z,15.10
2023-02-23T11:16:30.886Z,17.77
2023-02-23T11:19:02.250Z,16.00
2023-02-23T11:21:40.138Z,16.95
2023-02-23T11:24:34.322Z,13.40
2023-02-23T11:27:06.856Z,13.80
2023-02-23T11:29:44.380Z,13.02
2023-02-23T11:32:28.201Z,11.73
2023-02-23T11:35:34.297Z,14.10
2023-02-23T11:38:23.698Z,14.88
2023-02-23T11:41:11.986Z,16.38
2023-02-23T11:43:48.159Z,11.85
2023-02-23T11:46:15.308Z,11.10
2023-02-23T11:49:06.863Z,16.55
2023-02-23T11:51:41.374Z,14.00
2023-02-23T11:54:22.430Z,15.93
2023-02-23T11:56:55.313Z,12.73
2023-02-23T11:59:32.356Z,15.18
2023-02-23T12:02:28.796Z,15.18
2023-02-23T12:05:22.231Z,13.00
2023-02-23T12:08:20.017Z,13.73
2023-02-23T12:10:58.164Z,12.02
2023-02-23T12:13:25.124Z,15.05
2023-02-23T12:16:07.358Z,14.77
2023-02-23T12:19:02.100Z,11.25
2023-02-23T12:22:03.664Z,14.87
2023-02-23T12:24:50.283Z,12.10
2023-02-23T12:28:17.925Z,11.68
2023-02-23T12:31:00.109Z,16.38
2023-02-23T12:33:48.624Z,12.43
2023-02-23T12:36:31.765Z,14.40
2023-02-23T12:39:24.368Z,10.65
2023-02-23T12:42:12.609Z,12.45
2023-02-23T12:45:02.981Z,14.32
2023-02-23T12:47:49.446Z,13.18
2023-02-23T12:51:03.856Z,13.60
2023-02-23T12:53:45.348Z,16.70
2023-02-23T12:56:45.252Z,12.77
2023-02-23T12:59:51.115Z,17.05
2023-02-23T13:02:30.413Z,16.13
2023-02-23T13:05:26.942Z,11.70
2023-02-23T13:08:33.990Z,11.13
2023-02-23T13:11:17.024Z,12.27
2023-02-23T13:14:19.096Z,13.10
2023-02-23T13:16:56.570Z,14.48
2023-02-23T13:19:39.308Z,15.00
2023-02-23T13:23:02.658Z,12.77
2023-02-23T13:26:00.633Z,13.45
2023-02-23T13:28:47.741Z,14.23
2023-02-23T13:31:29.376Z,12.90
2023-02-23T13:33:59.256Z,15.80
2023-02-23T13:36:30.929Z,16.85
2023-02-23T13:39:35.089Z,17.13
2023-02-23T13:42:33.218Z,18.25
2023-02-23T13:45:29.115Z,14.88
2023-02-23T13:48:13.837Z,12.38
2023-02-23T13:50:58.737Z,16.87
2023-02-23T13:53:42.593Z,18.42
2023-02-23T13:56:23.779Z,14.88
2023-02-23T13:59:09.764Z,16.60
2023-02-23T14:01:40.250Z,12.85
2023-02-23T14:04:15.759Z,12.43
2023-02-23T14:07:02.342Z,13.38
2023-02-23T14:09:43.920Z,16.38
2023-02-23T14:12:10.864Z,13.38
2023-02-23T14:14:44.414Z,13.07
2023-02-23T14:17:14.081Z,14.07
2023-02-23T14:20:17.906Z,12.52
2023-02-23T14:23:22.180Z,12.57
2023-02-23T14:26:09.516Z,14.40
2023-02-23T14:28:40.442Z,12.52
2023-02-23T14:31:13.680Z,12.45
2023-02-23T14:33:46.921Z,13.30
2023-02-23T14:36:26.529Z,11.77
2023-02-23T14:38:56.120Z,11.85
2023-02-23T14:41:54.497Z,14.05
2023-02-23T14:44:31.733Z,13.70
2023-02-23T14:47:17.879Z,11.32
2023-02-23T14:49:54.575Z,12.10
2023-02-23T14:52:29.200Z,13.77
2023-02-23T14:55:11.455Z,13.27
2023-02-23T14:57:42.541Z,16.05
2023-02-23T15:00:23.450Z,18.98
2023-02-23T15:03:09.486Z,19.38
2023-02-23T15:05:47.896Z,21.23
2023-02-23T15:08:23.329Z,24.80
2023-02-23T15:11:13.625Z,22.77
2023-02-23T15:13:50.450Z,24.98
2023-02-23T15:16:35.114Z,21.90
2023-02-23T15:19:24.826Z,23.58
2023-02-23T15:22:02.854Z,25.50
2023-02-23T15:24:49.843Z,27.60
2023-02-23T15:27:27.136Z,23.02
2023-02-23T15:29:57.985Z,24.73
2023-02-23T15:32:26.508Z,21.00
2023-02-23T15:35:04.745Z,22.63
2023-02-23T15:38:41.871Z,21.08
2023-02-23T15:41:44.596Z,22.55
2023-02-23T15:45:04.527Z,24.70
2023-02-23T15:47:51.718Z,19.35
2023-02-23T15:50:36.331Z,25.95
2023-02-23T15:53:24.023Z,24.90
2023-02-23T15:56:02.922Z,21.77
2023-02-23T15:58:50.999Z,22.63
2023-02-23T16:01:30.259Z,21.30
2023-02-23T16:04:06.064Z,22.70
2023-02-23T16:06:39.669Z,23.83
2023-02-23T16:09:29.146Z,21.55
2023-02-23T16:12:14.110Z,20.00
2023-02-23T16:14:46.360Z,20.23
2023-02-23T16:17:39.329Z,16.38
2023-02-23T16:20:42.745Z,19.35
2023-02-23T16:23:53.291Z,15.70
2023-02-23T16:26:31.432Z,17.20
2023-02-23T16:29:02.220Z,20.30
2023-02-23T16:31:57.727Z,23.42
2023-02-23T16:37:20.390Z,23.65
2023-02-23T16:39:48.258Z,24.17
2023-02-23T16:42:35.208Z,21.60
2023-02-23T16:45:02.900Z,23.42
2023-02-23T16:47:48.308Z,25.10
2023-02-23T16:52:56.879Z,24.85
2023-02-23T16:55:29.966Z,23.17
2023-02-23T16:58:02.566Z,21.58
2023-02-23T17:00:33.397Z,23.00
2023-02-23T17:03:00.990Z,27.02
2023-02-23T17:05:30.146Z,25.52
2023-02-23T17:07:58.933Z,27.58
2023-02-23T17:10:34.565Z,30.08
2023-02-23T17:13:05.869Z,26.60
2023-02-23T17:15:48.026Z,24.77
2023-02-23T17:18:15.199Z,29.23
2023-02-23T17:20:42.124Z,27.35
2023-02-23T17:23:09.124Z,26.92
2023-02-23T17:25:36.070Z,29.83
2023-02-23T17:28:03.593Z,30.08
2023-02-23T17:30:31.510Z,31.52
2023-02-23T17:33:00.783Z,29.65
